createdAt,value
2023-03-06T02:27:37.853Z,1128.00
2023-03-06T02:28:37.837Z,1134.00
2023-03-06T02:29:37.893Z,1125.00
2023-03-06T02:30:37.954Z,1132.00
2023-03-06T02:31:37.997Z,1124.00
2023-03-06T02:55:38.389Z,1146.00
2023-03-06T02:56:38.384Z,1147.00
2023-03-06T02:57:38.386Z,1151.00
2023-03-06T02:58:38.397Z,1140.00
2023-03-06T02:59:38.376Z,1119.00
2023-03-06T03:00:39.952Z,1132.00
2023-03-06T03:01:38.437Z,1150.00
2023-03-06T03:02:38.422Z,1146.00
2023-03-06T03:03:38.401Z,1149.00
2023-03-06T03:04:38.474Z,1129.00
2023-03-06T03:05:38.433Z,1133.00
2023-03-06T03:06:38.422Z,1134.00
2023-03-06T03:07:38.416Z,1131.00
2023-03-06T03:08:38.425Z,1145.00
2023-03-06T03:09:38.439Z,1141.00
2023-03-06T03:10:38.464Z,1151.00
2023-03-06T03:11:38.458Z,1150.00
2023-03-06T03:12:38.442Z,1145.00
2023-03-06T03:13:38.633Z,1141.00
2023-03-06T03:14:38.460Z,1160.00
2023-03-06T03:15:38.528Z,1167.00
2023-03-06T03:16:39.262Z,1179.00
2023-03-06T03:17:38.491Z,1178.00
2023-03-06T03:18:38.503Z,1178.00
2023-03-06T03:19:38.505Z,1189.00
2023-03-06T03:20:38.492Z,1199.00
2023-03-06T03:21:38.472Z,1217.00
2023-03-06T03:22:38.494Z,1216.00
2023-03-06T03:23:38.511Z,1207.00
2023-03-06T03:24:38.530Z,1224.00
2023-03-06T03:25:38.509Z,1214.00
2023-03-06T03:26:38.508Z,1221.00
2023-03-06T03:27:38.543Z,1240.00
2023-03-06T03:28:38.546Z,1252.00
2023-03-06T03:29:38.569Z,1252.00
2023-03-06T03:30:38.552Z,1258.00
2023-03-06T03:31:38.599Z,1272.00
2023-03-06T03:32:38.574Z,1279.00
2023-03-06T03:33:38.636Z,1267.00
2023-03-06T03:34:38.581Z,1262.00
2023-03-06T03:35:38.609Z,1261.00
2023-03-06T03:36:38.595Z,1274.00
2023-03-06T03:37:38.611Z,1284.00
2023-03-06T03:38:38.643Z,1290.00
2023-03-06T03:39:38.667Z,1281.00
2023-03-06T03:40:38.734Z,1301.00
2023-03-06T03:41:38.785Z,1266.00
2023-03-06T03:42:38.869Z,1280.00
2023-03-06T03:43:38.923Z,1281.00
2023-03-06T03:44:38.968Z,1283.00
2023-03-06T03:45:39.048Z,1274.00
2023-03-06T03:46:39.100Z,1279.00
2023-03-06T03:47:39.145Z,1273.00
2023-03-06T03:48:39.153Z,1276.00
2023-03-06T03:49:39.187Z,1279.00
2023-03-06T03:50:39.172Z,1279.00
2023-03-06T03:51:39.204Z,1281.00
2023-03-06T03:52:39.148Z,1285.00
2023-03-06T03:53:39.172Z,1296.00
2023-03-06T03:54:39.165Z,1280.00
2023-03-06T03:55:39.181Z,1284.00
2023-03-06T03:56:39.197Z,1287.00
2023-03-06T03:57:39.160Z,1274.00
2023-03-06T03:58:39.180Z,1279.00
2023-03-06T03:59:39.194Z,1260.00
2023-03-06T04:00:39.177Z,1271.00
2023-03-06T04:01:39.857Z,1277.00
2023-03-06T04:02:39.261Z,1272.00
2023-03-06T04:03:39.319Z,1271.00
2023-03-06T04:04:39.402Z,1281.00
2023-03-06T04:05:39.443Z,1279.00
2023-03-06T04:06:39.473Z,1284.00
2023-03-06T04:07:39.533Z,1270.00
2023-03-06T04:08:39.614Z,1279.00
2023-03-06T04:09:39.597Z,1264.00
2023-03-06T04:10:39.659Z,1274.00
2023-03-06T04:11:39.664Z,1267.00
2023-03-06T04:12:39.705Z,1272.00
2023-03-06T04:13:39.718Z,1253.00
2023-03-06T04:14:39.732Z,1252.00
2023-03-06T04:15:39.770Z,1252.00
2023-03-06T04:16:39.811Z,1251.00
2023-03-06T04:17:39.852Z,1245.00
2023-03-06T04:18:39.878Z,1255.00
2023-03-06T04:19:39.938Z,1246.00
2023-03-06T04:20:39.947Z,1249.00
2023-03-06T04:21:39.966Z,1235.00
2023-03-06T04:22:40.022Z,1247.00
2023-03-06T04:23:40.023Z,1245.00
2023-03-06T04:24:40.066Z,1240.00
2023-03-06T04:25:40.115Z,1233.00
2023-03-06T04:26:40.142Z,1230.00
2023-03-06T04:27:40.202Z,1237.00
2023-03-06T04:28:40.198Z,1247.00
2023-03-06T04:29:40.239Z,1236.00
2023-03-06T04:30:40.277Z,1242.00
2023-03-06T04:31:40.328Z,1226.00
2023-03-06T04:32:40.418Z,1233.00
2023-03-06T04:33:40.372Z,1236.00
2023-03-06T04:34:40.380Z,1217.00
2023-03-06T04:35:40.544Z,1224.00
2023-03-06T04:36:40.477Z,1227.00
2023-03-06T04:37:40.539Z,1212.00
2023-03-06T04:38:40.631Z,1210.00
2023-03-06T04:39:40.619Z,1208.00
2023-03-06T04:40:40.617Z,1202.00
2023-03-06T04:41:40.662Z,1208.00
2023-03-06T04:42:40.695Z,1192.00
2023-03-06T04:43:40.797Z,1201.00
2023-03-06T04:44:40.801Z,1189.00
2023-03-06T04:45:40.855Z,1196.00
2023-03-06T04:46:40.867Z,1195.00
2023-03-06T04:47:40.869Z,1196.00
2023-03-06T04:48:40.902Z,1206.00
2023-03-06T04:49:40.886Z,1204.00
2023-03-06T04:50:40.874Z,1206.00
2023-03-06T04:51:40.953Z,1227.00
2023-03-06T04:52:40.960Z,1229.00
2023-03-06T04:53:40.965Z,1223.00
2023-03-06T04:54:40.977Z,1209.00
2023-03-06T04:55:40.966Z,1223.00
2023-03-06T04:56:40.998Z,1218.00
2023-03-06T04:57:40.971Z,1222.00
2023-03-06T04:58:40.980Z,1212.00
2023-03-06T04:59:40.997Z,1207.00
2023-03-06T05:00:41.020Z,1212.00
2023-03-06T05:01:41.019Z,1222.00
2023-03-06T05:02:40.984Z,1215.00
2023-03-06T05:03:40.993Z,1217.00
2023-03-06T05:04:40.973Z,1207.00
2023-03-06T05:05:41.003Z,1209.00
2023-03-06T05:06:41.000Z,1205.00
2023-03-06T05:07:40.974Z,1213.00
2023-03-06T05:08:41.008Z,1205.00
2023-03-06T05:09:40.999Z,1226.00
2023-03-06T05:10:41.004Z,1212.00
2023-03-06T05:11:41.003Z,1208.00
2023-03-06T05:12:40.993Z,1199.00
2023-03-06T05:13:41.036Z,1213.00
2023-03-06T05:14:41.029Z,1204.00
2023-03-06T05:15:41.008Z,1200.00
2023-03-06T05:16:41.083Z,1206.00
2023-03-06T05:17:41.024Z,1210.00
2023-03-06T05:18:41.060Z,1203.00
2023-03-06T05:19:41.070Z,1212.00
2023-03-06T05:20:41.076Z,1202.00
2023-03-06T05:21:41.024Z,1198.00
2023-03-06T05:22:41.061Z,1209.00
2023-03-06T05:23:41.056Z,1214.00
2023-03-06T05:24:41.073Z,1216.00
2023-03-06T05:25:41.089Z,1195.00
2023-03-06T05:26:41.068Z,1209.00
2023-03-06T05:27:41.069Z,1182.00
2023-03-06T05:28:41.082Z,1183.00
2023-03-06T05:29:41.088Z,1203.00
2023-03-06T05:30:41.098Z,1194.00
2023-03-06T05:31:41.195Z,1196.00
2023-03-06T05:32:41.251Z,1201.00
2023-03-06T05:33:41.273Z,1194.00
2023-03-06T05:34:41.342Z,1189.00
2023-03-06T05:35:41.449Z,1201.00
2023-03-06T05:36:41.453Z,1181.00
2023-03-06T05:37:41.492Z,1200.00
2023-03-06T05:38:41.505Z,1197.00
2023-03-06T05:39:41.508Z,1199.00
2023-03-06T05:40:41.529Z,1202.00
2023-03-06T05:41:41.507Z,1201.00
2023-03-06T05:42:41.514Z,1208.00
2023-03-06T05:43:41.515Z,1189.00
2023-03-06T05:44:41.556Z,1180.00
2023-03-06T05:45:41.594Z,1207.00
2023-03-06T05:46:41.527Z,1200.00
2023-03-06T05:47:41.526Z,1190.00
2023-03-06T05:48:41.528Z,1212.00
2023-03-06T05:49:41.545Z,1195.00
2023-03-06T05:50:41.515Z,1209.00
2023-03-06T05:51:41.508Z,1218.00
2023-03-06T05:52:41.536Z,1194.00
2023-03-06T05:53:41.517Z,1211.00
2023-03-06T05:54:41.556Z,1209.00
2023-03-06T05:55:41.555Z,1214.00
2023-03-06T05:56:42.909Z,1208.00
2023-03-06T05:57:41.585Z,1211.00
2023-03-06T05:58:41.657Z,1224.00
2023-03-06T05:59:42.690Z,1212.00
2023-03-06T06:00:41.786Z,1222.00
2023-03-06T06:01:48.816Z,1218.00
2023-03-06T06:02:41.870Z,1219.00
2023-03-06T06:03:41.823Z,1221.00
2023-03-06T06:04:41.812Z,1224.00
2023-03-06T06:05:41.770Z,1225.00
2023-03-06T06:06:41.784Z,1235.00
2023-03-06T06:07:41.790Z,1223.00
2023-03-06T06:08:41.829Z,1214.00
2023-03-06T06:09:41.854Z,1217.00
2023-03-06T06:10:41.755Z,1220.00
2023-03-06T06:11:41.747Z,1213.00
2023-03-06T06:12:41.804Z,1216.00
2023-03-06T06:13:41.780Z,1215.00
2023-03-06T06:14:41.748Z,1215.00
2023-03-06T06:15:41.791Z,1227.00
2023-03-06T06:16:41.711Z,1220.00
2023-03-06T06:17:41.715Z,1212.00
2023-03-06T06:18:41.700Z,1213.00
2023-03-06T06:19:41.688Z,1223.00
2023-03-06T06:20:41.726Z,1222.00
2023-03-06T06:21:41.680Z,1218.00
2023-03-06T06:22:41.695Z,1231.00
2023-03-06T06:23:41.661Z,1226.00
2023-03-06T06:24:41.649Z,1219.00
2023-03-06T06:25:41.624Z,1211.00
2023-03-06T06:26:41.665Z,1216.00
2023-03-06T06:27:41.652Z,1236.00
2023-03-06T06:28:41.617Z,1217.00
2023-03-06T06:29:41.623Z,1221.00
2023-03-06T06:30:42.037Z,1211.00
2023-03-06T06:31:41.640Z,1241.00
2023-03-06T06:32:41.696Z,1231.00
2023-03-06T06:33:41.655Z,1236.00
2023-03-06T06:35:41.614Z,1306.00
2023-03-06T06:36:41.812Z,1304.00
2023-03-06T06:37:41.584Z,1365.00
2023-03-06T06:38:41.548Z,1364.00
2023-03-06T06:39:41.571Z,1401.00
2023-03-06T06:40:41.560Z,1410.00
2023-03-06T06:42:02.257Z,1425.00
2023-03-06T06:42:42.543Z,1426.00
2023-03-06T06:43:41.536Z,1439.00
2023-03-06T06:44:41.512Z,1506.00
2023-03-06T06:45:41.527Z,1572.00
2023-03-06T06:47:42.532Z,1436.00
2023-03-06T06:48:41.679Z,1478.00
2023-03-06T06:49:41.533Z,1591.00
2023-03-06T06:50:41.576Z,1753.00
2023-03-06T06:51:41.511Z,2027.00
2023-03-06T06:52:41.474Z,2091.00
2023-03-06T06:53:41.496Z,2151.00
2023-03-06T06:54:41.477Z,2178.00
2023-03-06T06:55:41.477Z,2230.00
2023-03-06T06:56:41.451Z,2296.00
2023-03-06T06:57:41.436Z,2282.00
2023-03-06T06:58:41.426Z,2297.00
2023-03-06T06:59:41.489Z,2329.00
2023-03-06T07:00:41.417Z,2373.00
2023-03-06T07:01:41.446Z,2398.00
2023-03-06T07:02:41.423Z,2415.00
2023-03-06T07:03:41.443Z,2404.00
2023-03-06T07:04:56.193Z,2428.00
2023-03-06T07:05:42.400Z,2429.00
2023-03-06T07:06:41.401Z,2429.00
2023-03-06T07:07:41.375Z,2437.00
2023-03-06T07:08:41.366Z,2474.00
2023-03-06T07:09:41.476Z,2488.00
2023-03-06T07:10:41.382Z,2542.00
2023-03-06T07:11:41.855Z,2529.00
2023-03-06T07:12:41.361Z,2548.00
2023-03-06T07:13:41.322Z,2548.00
2023-03-06T07:14:41.374Z,2562.00
2023-03-06T07:15:41.374Z,2569.00
2023-03-06T07:16:41.324Z,2581.00
2023-03-06T07:17:41.322Z,2599.00
2023-03-06T07:18:41.292Z,2603.00
2023-03-06T07:19:41.359Z,2586.00
2023-03-06T07:20:41.304Z,2623.00
2023-03-06T07:21:41.390Z,2622.00
2023-03-06T07:22:50.845Z,2663.00
2023-03-06T07:23:42.347Z,2665.00
2023-03-06T07:24:41.365Z,2677.00
2023-03-06T07:25:41.321Z,2693.00
2023-03-06T07:26:41.336Z,2731.00
2023-03-06T07:27:41.361Z,2781.00
2023-03-06T07:28:51.956Z,2821.00
2023-03-06T07:29:42.292Z,2825.00
2023-03-06T07:30:41.301Z,2838.00
2023-03-06T07:31:41.362Z,2856.00
2023-03-06T07:32:41.328Z,2898.00
2023-03-06T07:33:41.284Z,2904.00
2023-03-06T07:34:41.286Z,2885.00
2023-03-06T07:35:41.345Z,2908.00
2023-03-06T07:36:41.355Z,2887.00
2023-03-06T07:37:41.309Z,2853.00
2023-03-06T07:38:41.299Z,2842.00
2023-03-06T07:39:41.280Z,2839.00
2023-03-06T07:40:41.321Z,2823.00
2023-03-06T07:41:41.868Z,2794.00
2023-03-06T07:42:41.254Z,2776.00
2023-03-06T07:43:41.313Z,2773.00
2023-03-06T07:44:41.233Z,2774.00
2023-03-06T07:45:41.211Z,2791.00
2023-03-06T07:46:41.534Z,2791.00
2023-03-06T07:47:41.309Z,2794.00
2023-03-06T07:48:41.374Z,2821.00
2023-03-06T07:49:41.485Z,2856.00
2023-03-06T07:50:41.463Z,2878.00
2023-03-06T07:53:41.579Z,2887.00
2023-03-06T07:54:41.631Z,2917.00
2023-03-06T07:55:42.044Z,2881.00
2023-03-06T07:56:41.945Z,2810.00
2023-03-06T07:58:41.718Z,2758.00
2023-03-06T07:59:41.808Z,2721.00
2023-03-06T08:00:41.839Z,2743.00
2023-03-06T08:01:41.908Z,2805.00
2023-03-06T08:02:41.941Z,2706.00
2023-03-06T08:03:41.832Z,2657.00
2023-03-06T08:04:41.862Z,2658.00
2023-03-06T08:05:41.860Z,2660.00
2023-03-06T08:06:41.875Z,2617.00
2023-03-06T08:36:42.613Z,1060.00
2023-03-06T09:41:44.947Z,1803.00
2023-03-06T11:18:49.017Z,2746.00
2023-03-06T11:38:48.788Z,2916.00
2023-03-06T11:39:48.962Z,2879.00
2023-03-06T11:40:48.799Z,2792.00
2023-03-06T11:41:48.797Z,2757.00
2023-03-06T11:42:48.825Z,2714.00
2023-03-06T11:43:48.838Z,2671.00
2023-03-06T11:44:48.970Z,2648.00
2023-03-06T11:45:48.989Z,2634.00
2023-03-06T11:46:48.998Z,2602.00
2023-03-06T11:47:49.040Z,2576.00
2023-03-06T11:48:49.055Z,2546.00
2023-03-06T11:49:49.455Z,2516.00
2023-03-06T11:50:49.120Z,2481.00
2023-03-06T11:51:49.170Z,2470.00
2023-03-06T11:52:49.248Z,2461.00
2023-03-06T11:53:49.256Z,2435.00
2023-03-06T11:54:49.483Z,2408.00
2023-03-06T11:55:49.369Z,2389.00
2023-03-06T11:56:49.372Z,2378.00
2023-03-06T11:57:49.421Z,2362.00
2023-03-06T11:58:49.486Z,2338.00
2023-03-06T11:59:49.549Z,2286.00
2023-03-06T12:00:49.602Z,2264.00
2023-03-06T12:01:49.670Z,2230.00
2023-03-06T12:02:49.717Z,2231.00
2023-03-06T12:03:49.781Z,2213.00
2023-03-06T12:04:49.998Z,2199.00
2023-03-06T12:05:49.996Z,2170.00
2023-03-06T12:06:49.973Z,2150.00
2023-03-06T12:07:50.078Z,2130.00
2023-03-06T12:08:50.075Z,2106.00
2023-03-06T12:09:50.111Z,2083.00
2023-03-06T12:10:51.866Z,2064.00
2023-03-06T12:11:50.317Z,2049.00
2023-03-06T12:12:50.650Z,2028.00
2023-03-06T12:14:50.477Z,1993.00
2023-03-06T12:15:50.533Z,1991.00
2023-03-06T12:16:50.529Z,1973.00
2023-03-06T12:17:50.561Z,1958.00
2023-03-06T12:18:50.557Z,1954.00
2023-03-06T12:19:50.991Z,1931.00
2023-03-06T12:20:50.971Z,1921.00
2023-03-06T12:21:50.671Z,1918.00
2023-03-06T12:22:57.616Z,1894.00
2023-03-06T12:23:51.769Z,1895.00
2023-03-06T12:24:50.732Z,1894.00
2023-03-06T12:25:51.011Z,1879.00
2023-03-06T12:26:50.715Z,1839.00
2023-03-06T12:27:50.709Z,1832.00
2023-03-06T12:28:50.720Z,1810.00
2023-03-06T12:29:50.792Z,1808.00
2023-03-06T12:30:51.053Z,1768.00
2023-03-06T12:31:50.764Z,1790.00
2023-03-06T12:32:50.729Z,1745.00
2023-03-06T12:33:50.696Z,1692.00
2023-03-06T12:34:50.674Z,1709.00
2023-03-06T12:35:51.020Z,1724.00
2023-03-06T12:36:50.672Z,1688.00
2023-03-06T12:37:50.804Z,1662.00
2023-03-06T12:38:50.637Z,1581.00
2023-03-06T12:39:50.634Z,1484.00
2023-03-06T12:40:50.642Z,1525.00
2023-03-06T12:41:50.656Z,1399.00
2023-03-06T12:42:50.662Z,1357.00
2023-03-06T12:43:50.682Z,1339.00
2023-03-06T12:44:50.743Z,1363.00
2023-03-06T12:45:50.791Z,1390.00
2023-03-06T12:46:50.749Z,1314.00
2023-03-06T12:47:50.790Z,1317.00
2023-03-06T12:48:50.814Z,1274.00
2023-03-06T12:49:50.839Z,1270.00
2023-03-06T12:50:50.879Z,1277.00
2023-03-06T12:51:50.899Z,1289.00
2023-03-06T12:52:50.907Z,1259.00
2023-03-06T12:53:50.919Z,1223.00
2023-03-06T12:54:50.953Z,1224.00
2023-03-06T12:55:50.957Z,1258.00
2023-03-06T12:56:50.970Z,1243.00
2023-03-06T12:57:50.984Z,1242.00
2023-03-06T12:58:51.052Z,1227.00
2023-03-06T12:59:51.034Z,1228.00
2023-03-06T13:00:55.281Z,1248.00
2023-03-06T13:01:52.134Z,1248.00
2023-03-06T13:02:51.094Z,1248.00
2023-03-06T13:03:51.013Z,1211.00
2023-03-06T13:04:51.046Z,1231.00
2023-03-06T13:05:51.087Z,1206.00
2023-03-06T13:06:51.616Z,1215.00
2023-03-06T13:07:51.113Z,1299.00
2023-03-06T13:08:51.137Z,2168.00
2023-03-06T13:09:51.148Z,2822.00
2023-03-06T13:10:51.167Z,2491.00
2023-03-06T13:11:51.170Z,2629.00
2023-03-06T13:12:51.271Z,2634.00
2023-03-06T13:13:51.236Z,2644.00
2023-03-06T13:14:54.565Z,2410.00
2023-03-06T13:15:51.261Z,2389.00
2023-03-06T13:16:51.264Z,2418.00
2023-03-06T13:17:51.272Z,2378.00
2023-03-06T13:18:51.237Z,2359.00
2023-03-06T13:19:51.272Z,2323.00
2023-03-06T13:20:51.227Z,2277.00
2023-03-06T13:21:51.234Z,2249.00
2023-03-06T13:22:51.238Z,2252.00
2023-03-06T13:23:51.245Z,2251.00
2023-03-06T13:24:54.926Z,2217.00
2023-03-06T13:25:51.244Z,2218.00
2023-03-06T13:26:51.218Z,2199.00
2023-03-06T13:27:51.197Z,2173.00
2023-03-06T13:28:51.168Z,2149.00
2023-03-06T13:29:51.173Z,2136.00
2023-03-06T13:30:53.021Z,2133.00
2023-03-06T15:48:18.837Z,2862.00
2023-03-06T15:50:18.799Z,2889.00
2023-03-06T15:51:18.840Z,2976.00
2023-03-06T15:52:18.823Z,2963.00
2023-03-06T15:53:18.812Z,2976.00
2023-03-06T15:54:18.841Z,3004.00
2023-03-06T15:55:18.875Z,3030.00
2023-03-06T15:56:19.003Z,3088.00
2023-03-06T15:57:19.107Z,3100.00
2023-03-06T15:58:19.197Z,3093.00
2023-03-06T15:59:19.234Z,3105.00
2023-03-06T16:00:27.390Z,3115.00
2023-03-06T16:01:20.370Z,3117.00
2023-03-06T16:02:19.337Z,3132.00
2023-03-06T16:03:19.314Z,3139.00
2023-03-06T16:04:19.377Z,3165.00
2023-03-06T16:05:19.329Z,3184.00
2023-03-06T16:06:19.313Z,3185.00
2023-03-06T16:07:19.339Z,3183.00
2023-03-06T16:08:19.304Z,3188.00
2023-03-06T16:09:19.290Z,3223.00
2023-03-06T16:10:19.322Z,3243.00
2023-03-06T16:11:19.265Z,3228.00
2023-03-06T16:12:19.336Z,3303.00
2023-03-06T16:13:19.385Z,3337.00
2023-03-06T16:14:19.421Z,3294.00
2023-03-06T16:15:19.450Z,3050.00
2023-03-06T16:16:19.538Z,2700.00
2023-03-06T16:17:19.469Z,2129.00
2023-03-06T16:18:19.519Z,1364.00
2023-03-06T16:19:25.969Z,1109.00
2023-03-06T16:20:20.563Z,959.00
2023-03-06T16:21:19.548Z,783.00
2023-03-06T16:22:19.530Z,765.00
2023-03-06T16:23:19.556Z,643.00
2023-03-06T16:24:19.516Z,616.00
2023-03-06T16:25:19.523Z,578.00
2023-03-06T16:26:19.508Z,499.00
2023-03-06T16:27:19.552Z,492.00
2023-03-06T16:28:19.523Z,538.00
2023-03-06T16:29:19.528Z,493.00
2023-03-06T16:30:19.498Z,524.00
2023-03-06T16:31:19.475Z,500.00
2023-03-06T16:32:19.585Z,451.00
2023-03-06T16:33:19.542Z,400.00
2023-03-06T16:34:19.761Z,441.00
2023-03-06T16:35:19.678Z,559.00
2023-03-06T16:36:19.642Z,610.00
2023-03-06T16:37:19.638Z,470.00
2023-03-06T16:38:19.663Z,466.00
2023-03-06T16:39:19.652Z,594.00
2023-03-06T16:40:19.710Z,1013.00
2023-03-06T16:41:19.716Z,1319.00
2023-03-06T16:42:19.749Z,1381.00
2023-03-06T16:43:19.788Z,1576.00
2023-03-06T16:44:19.847Z,1746.00
2023-03-06T16:45:19.832Z,1873.00
2023-03-06T16:46:19.898Z,2059.00
2023-03-06T16:47:19.912Z,2183.00
2023-03-06T16:48:19.999Z,2375.00
2023-03-06T16:49:20.022Z,2664.00
2023-03-06T16:50:19.976Z,2845.00
2023-03-06T16:51:19.999Z,2864.00
2023-03-06T16:52:20.044Z,2927.00
2023-03-06T16:53:20.115Z,3163.00
2023-03-06T16:54:20.184Z,3192.00
2023-03-06T16:55:20.173Z,3229.00
2023-03-06T16:56:20.205Z,3230.00
2023-03-06T16:57:20.251Z,3303.00
2023-03-06T16:58:20.285Z,3305.00
2023-03-06T16:59:20.277Z,3340.00
2023-03-06T17:00:20.313Z,3336.00
2023-03-06T17:01:20.356Z,3261.00
2023-03-06T17:02:20.377Z,3193.00
2023-03-06T17:03:20.367Z,3173.00
2023-03-06T17:04:20.378Z,3075.00
2023-03-06T17:05:20.388Z,2994.00
2023-03-06T17:06:20.409Z,2999.00
2023-03-06T17:07:20.439Z,3016.00
2023-03-06T17:08:20.489Z,2964.00
2023-03-06T17:09:20.496Z,2970.00
2023-03-06T17:10:20.519Z,3010.00
2023-03-06T17:11:20.560Z,2983.00
2023-03-06T17:12:20.544Z,2915.00
2023-03-06T17:13:20.599Z,2977.00
2023-03-06T17:14:20.625Z,2924.00
2023-03-06T17:15:20.610Z,2888.00
2023-03-06T17:16:20.757Z,2945.00
2023-03-06T17:17:20.709Z,2941.00
2023-03-06T17:18:20.690Z,2880.00
2023-03-06T17:19:20.717Z,2897.00
2023-03-06T17:20:20.750Z,2898.00
2023-03-06T17:21:20.818Z,2916.00
2023-03-06T17:22:20.813Z,2887.00
2023-03-06T17:23:20.874Z,2903.00
2023-03-06T17:24:20.893Z,2846.00
2023-03-06T17:25:20.922Z,2859.00
2023-03-06T17:26:20.926Z,2844.00
2023-03-06T17:27:20.959Z,2849.00
2023-03-06T17:28:20.979Z,2829.00
2023-03-06T17:29:21.031Z,2871.00
2023-03-06T17:30:21.065Z,2838.00
2023-03-06T17:31:21.115Z,2838.00
2023-03-06T17:32:21.148Z,2811.00
2023-03-06T17:33:21.735Z,2807.00
2023-03-06T17:34:23.082Z,2795.00
2023-03-06T17:35:21.172Z,2807.00
2023-03-06T17:36:21.169Z,2787.00
2023-03-06T17:37:21.200Z,2772.00
2023-03-06T17:38:21.129Z,2735.00
2023-03-06T17:39:21.111Z,2690.00
2023-03-06T17:40:21.123Z,2762.00
2023-03-06T17:41:21.146Z,2683.00
2023-03-06T17:42:21.115Z,2652.00
2023-03-06T17:43:21.106Z,2682.00
2023-03-06T17:44:21.099Z,2673.00
2023-03-06T17:45:21.077Z,2657.00
2023-03-06T17:46:21.120Z,2640.00
2023-03-06T17:47:21.078Z,2636.00
2023-03-06T17:48:21.093Z,2623.00
2023-03-06T17:49:21.068Z,2595.00
2023-03-06T17:50:21.058Z,2624.00
2023-03-06T17:51:21.055Z,2594.00
2023-03-06T17:52:21.025Z,2630.00
2023-03-06T17:53:21.031Z,2569.00
2023-03-06T17:54:21.083Z,2565.00
2023-03-06T17:55:21.047Z,2548.00
2023-03-06T17:56:21.039Z,2580.00
2023-03-06T17:57:21.029Z,2567.00
2023-03-06T17:58:21.023Z,2563.00
2023-03-06T17:59:20.995Z,2580.00
2023-03-06T18:00:20.971Z,2520.00
2023-03-06T18:01:20.994Z,2531.00
2023-03-06T18:02:20.992Z,2524.00
2023-03-06T18:03:21.107Z,2538.00
2023-03-06T18:04:20.964Z,2574.00
2023-03-06T18:05:20.971Z,2539.00
2023-03-06T18:06:20.994Z,2561.00
2023-03-06T18:07:20.967Z,2557.00
2023-03-06T18:08:20.942Z,2582.00
2023-03-06T18:09:20.930Z,2544.00
2023-03-06T18:10:20.936Z,2534.00
2023-03-06T18:11:20.922Z,2513.00
2023-03-06T18:12:21.073Z,2523.00
2023-03-06T18:13:20.898Z,2518.00
2023-03-06T18:14:20.906Z,2519.00
2023-03-06T18:15:20.900Z,2544.00
2023-03-06T18:16:21.019Z,2531.00
2023-03-06T18:17:20.885Z,2530.00
2023-03-06T18:18:20.886Z,2521.00
2023-03-06T18:19:20.880Z,2515.00
2023-03-06T18:20:20.878Z,2493.00
2023-03-06T18:21:20.885Z,2503.00
2023-03-06T18:22:20.836Z,2468.00
2023-03-06T18:23:20.843Z,2477.00
2023-03-06T18:24:20.850Z,2483.00
2023-03-06T18:25:20.837Z,2486.00
2023-03-06T18:26:20.839Z,2468.00
2023-03-06T18:27:20.837Z,2454.00
2023-03-06T18:28:20.819Z,2449.00
2023-03-06T18:29:20.816Z,2461.00
2023-03-06T18:30:20.830Z,2468.00
2023-03-06T18:31:20.926Z,2475.00
2023-03-06T18:32:20.962Z,2455.00
2023-03-06T18:33:20.973Z,2463.00
2023-03-06T18:34:21.011Z,2412.00
2023-03-06T18:35:21.103Z,2404.00
2023-03-06T18:36:21.117Z,2441.00
2023-03-06T18:37:21.124Z,2408.00
2023-03-06T18:38:21.190Z,2419.00
2023-03-06T18:39:21.229Z,2417.00
2023-03-06T18:40:22.908Z,2415.00
2023-03-06T18:41:21.265Z,2425.00
2023-03-06T18:42:21.227Z,2416.00
2023-03-06T18:43:21.216Z,2414.00
2023-03-06T18:44:21.221Z,2396.00
2023-03-06T18:45:21.235Z,2395.00
2023-03-06T18:46:21.197Z,2387.00
2023-03-06T18:47:21.177Z,2381.00
2023-03-06T18:48:21.166Z,2384.00
2023-03-06T18:49:21.245Z,2367.00
2023-03-06T18:50:21.174Z,2357.00
2023-03-06T18:51:21.189Z,2339.00
2023-03-06T18:52:21.176Z,2340.00
2023-03-06T18:53:21.175Z,2334.00
2023-03-06T18:54:21.190Z,2361.00
2023-03-06T18:55:21.366Z,2346.00
2023-03-06T18:56:21.179Z,2325.00
2023-03-06T18:57:21.131Z,2320.00
2023-03-06T18:58:21.110Z,2307.00
2023-03-06T18:59:21.123Z,2305.00
2023-03-06T19:00:21.124Z,2309.00
2023-03-06T19:01:21.172Z,2320.00
2023-03-06T19:02:21.110Z,2323.00
2023-03-06T19:03:21.084Z,2286.00
2023-03-06T19:04:21.111Z,2316.00
2023-03-06T19:05:21.092Z,2284.00
2023-03-06T19:06:21.084Z,2284.00
2023-03-06T19:07:21.072Z,2270.00
2023-03-06T19:08:21.072Z,2258.00
2023-03-06T19:09:21.053Z,2254.00
2023-03-06T19:10:21.068Z,2250.00
2023-03-06T19:11:21.085Z,2235.00
2023-03-06T19:12:21.065Z,2244.00
2023-03-06T19:13:21.040Z,2195.00
2023-03-06T19:14:21.023Z,2205.00
2023-03-06T19:15:21.020Z,2208.00
2023-03-06T19:16:21.042Z,2183.00
2023-03-06T19:17:21.024Z,2149.00
2023-03-06T19:18:21.030Z,2165.00
2023-03-06T19:19:21.001Z,2151.00
2023-03-06T19:20:20.994Z,2165.00
2023-03-06T19:21:21.018Z,2168.00
2023-03-06T19:22:20.992Z,2153.00
2023-03-06T19:23:20.990Z,2151.00
2023-03-06T19:24:20.984Z,2152.00
2023-03-06T19:25:21.051Z,2148.00
2023-03-06T19:26:21.153Z,2149.00
2023-03-06T19:27:21.145Z,2153.00
2023-03-06T19:28:21.197Z,2167.00
2023-03-06T19:29:21.258Z,2169.00
2023-03-06T19:30:21.297Z,2134.00
2023-03-06T19:31:21.380Z,2140.00
2023-03-06T19:32:21.405Z,2160.00
2023-03-06T19:33:21.385Z,2116.00
2023-03-06T19:34:21.419Z,2132.00
2023-03-06T19:35:21.441Z,2123.00
2023-03-06T19:36:21.470Z,2088.00
2023-03-06T19:37:21.477Z,2094.00
2023-03-06T19:38:21.488Z,2119.00
2023-03-06T19:39:21.544Z,2128.00
2023-03-06T19:40:21.545Z,2133.00
2023-03-06T19:41:21.559Z,2174.00
2023-03-06T19:42:21.586Z,2145.00
2023-03-06T19:43:21.611Z,2129.00
2023-03-06T19:44:21.601Z,2137.00
2023-03-06T19:45:21.638Z,2120.00
2023-03-06T19:46:21.732Z,2136.00
2023-03-06T19:47:21.699Z,2140.00
2023-03-06T19:48:22.804Z,2137.00
2023-03-06T19:49:21.772Z,2121.00
2023-03-06T19:50:21.851Z,2147.00
2023-03-06T19:51:21.906Z,2117.00
2023-03-06T19:52:21.916Z,2121.00
2023-03-06T21:59:28.835Z,1911.00
2023-03-06T22:00:28.840Z,1916.00
2023-03-06T22:01:29.088Z,1933.00
